createdAt,value
2022-10-14T00:01:09.696Z,13.38
2022-10-14T00:03:40.004Z,12.98
2022-10-14T00:06:09.243Z,12.98
2022-10-14T00:08:38.106Z,12.32
2022-10-14T00:11:08.021Z,13.00
2022-10-14T00:13:36.902Z,13.00
2022-10-14T00:16:05.990Z,12.88
2022-10-14T00:18:34.773Z,13.20
2022-10-14T00:21:04.958Z,12.77
2022-10-14T00:23:33.512Z,12.80
2022-10-14T00:26:01.986Z,12.85
2022-10-14T00:28:30.518Z,13.80
2022-10-14T00:31:00.753Z,12.73
2022-10-14T00:33:29.436Z,13.13
2022-10-14T00:36:00.138Z,12.63
2022-10-14T00:38:30.076Z,12.50
2022-10-14T00:40:58.770Z,12.50
2022-10-14T00:43:27.763Z,12.52
2022-10-14T00:45:56.615Z,12.43
2022-10-14T00:48:26.529Z,13.55
2022-10-14T00:50:56.151Z,13.68
2022-10-14T00:53:24.720Z,13.13
2022-10-14T00:55:54.634Z,13.35
2022-10-14T00:58:23.420Z,12.93
2022-10-14T01:00:52.024Z,13.40
2022-10-14T01:03:22.969Z,12.75
2022-10-14T01:05:54.934Z,13.68
2022-10-14T01:08:27.592Z,13.27
2022-10-14T01:11:03.489Z,12.98
2022-10-14T01:13:34.540Z,13.18
2022-10-14T01:16:12.182Z,13.40
2022-10-14T01:18:53.198Z,13.55
2022-10-14T01:21:26.461Z,12.50
2022-10-14T01:24:26.138Z,13.32
2022-10-14T01:27:18.424Z,12.77
2022-10-14T01:30:10.663Z,12.85
2022-10-14T01:32:52.383Z,12.65
2022-10-14T01:35:38.395Z,13.13
2022-10-14T01:38:12.396Z,13.70
2022-10-14T01:40:44.994Z,12.45
2022-10-14T01:43:14.370Z,12.80
2022-10-14T01:45:45.243Z,13.63
2022-10-14T01:48:14.694Z,12.65
2022-10-14T01:50:43.226Z,12.80
2022-10-14T01:53:14.991Z,13.15
2022-10-14T01:55:45.936Z,12.50
2022-10-14T01:58:15.563Z,14.55
2022-10-14T02:00:47.879Z,13.35
2022-10-14T02:03:17.926Z,13.40
2022-10-14T02:05:49.922Z,13.15
2022-10-14T02:08:25.688Z,12.98
2022-10-14T02:11:07.928Z,13.07
2022-10-14T02:13:51.071Z,12.80
2022-10-14T02:16:29.254Z,13.13
2022-10-14T02:19:02.092Z,13.32
2022-10-14T02:21:34.871Z,13.55
2022-10-14T02:24:06.861Z,13.98
2022-10-14T02:26:35.697Z,13.02
2022-10-14T02:29:05.079Z,13.68
2022-10-14T02:31:35.817Z,13.50
2022-10-14T02:34:07.368Z,12.52
2022-10-14T02:36:37.063Z,13.05
2022-10-14T02:39:05.886Z,12.80
2022-10-14T02:41:36.503Z,13.63
2022-10-14T02:44:06.574Z,12.63
2022-10-14T02:46:36.976Z,12.38
2022-10-14T02:49:05.554Z,13.23
2022-10-14T02:51:34.358Z,13.45
2022-10-14T02:54:02.982Z,13.15
2022-10-14T02:56:31.578Z,12.57
2022-10-14T02:59:00.092Z,13.98
2022-10-14T03:01:29.987Z,13.27
2022-10-14T03:04:01.460Z,12.63
2022-10-14T03:06:30.037Z,12.55
2022-10-14T03:08:58.593Z,12.23
2022-10-14T03:11:27.204Z,13.23
2022-10-14T03:13:55.767Z,12.75
2022-10-14T03:16:24.364Z,13.00
2022-10-14T03:18:52.870Z,13.60
2022-10-14T03:21:23.023Z,13.00
2022-10-14T03:23:52.798Z,12.07
2022-10-14T03:26:21.488Z,13.48
2022-10-14T03:28:50.148Z,13.20
2022-10-14T03:31:18.790Z,12.43
2022-10-14T03:33:47.864Z,13.38
2022-10-14T03:36:16.585Z,12.82
2022-10-14T03:38:46.496Z,13.23
2022-10-14T03:41:15.034Z,12.95
2022-10-14T03:43:43.787Z,12.65
2022-10-14T03:46:12.306Z,12.80
2022-10-14T03:48:41.133Z,12.50
2022-10-14T03:51:09.980Z,12.50
2022-10-14T03:53:38.731Z,13.13
2022-10-14T03:56:09.335Z,12.70
2022-10-14T03:58:38.188Z,13.85
2022-10-14T04:01:06.830Z,13.15
2022-10-14T04:03:35.469Z,13.05
2022-10-14T04:06:04.101Z,13.00
2022-10-14T04:08:32.742Z,12.75
2022-10-14T04:11:01.441Z,12.35
2022-10-14T04:13:33.060Z,13.43
2022-10-14T04:16:05.136Z,13.80
2022-10-14T04:18:34.893Z,13.30
2022-10-14T04:21:07.406Z,13.05
2022-10-14T04:23:36.261Z,12.73
2022-10-14T04:26:05.742Z,12.57
2022-10-14T04:28:35.918Z,14.05
2022-10-14T04:31:04.852Z,12.90
2022-10-14T04:33:35.135Z,12.80
2022-10-14T04:36:07.712Z,12.20
2022-10-14T04:38:36.580Z,12.77
2022-10-14T04:41:05.592Z,13.07
2022-10-14T04:43:36.014Z,13.15
2022-10-14T04:46:04.530Z,12.70
2022-10-14T04:48:33.225Z,11.98
2022-10-14T04:51:01.883Z,12.77
2022-10-14T04:53:30.500Z,13.18
2022-10-14T04:55:59.046Z,12.65
2022-10-14T04:58:29.417Z,12.30
2022-10-14T05:00:59.290Z,12.73
2022-10-14T05:03:28.394Z,12.90
2022-10-14T05:05:57.053Z,12.80
2022-10-14T05:08:25.692Z,12.88
2022-10-14T05:10:54.279Z,13.52
2022-10-14T05:13:22.826Z,12.82
2022-10-14T05:15:51.409Z,12.98
2022-10-14T05:18:21.394Z,12.80
2022-10-14T05:20:50.006Z,12.55
2022-10-14T05:23:18.568Z,12.25
2022-10-14T05:25:47.074Z,13.45
2022-10-14T05:28:15.765Z,12.43
2022-10-14T05:30:44.319Z,12.30
2022-10-14T05:33:12.985Z,12.70
2022-10-14T05:35:58.248Z,12.75
2022-10-14T05:38:29.824Z,12.40
2022-10-14T05:40:58.968Z,11.65
2022-10-14T05:43:32.014Z,12.63
2022-10-14T05:46:01.574Z,12.15
2022-10-14T05:48:30.613Z,11.93
2022-10-14T05:51:02.706Z,11.90
2022-10-14T05:53:32.705Z,12.70
2022-10-14T05:56:05.696Z,12.40
2022-10-14T05:58:34.239Z,11.63
2022-10-14T06:01:02.950Z,11.50
2022-10-14T06:03:31.746Z,12.43
2022-10-14T06:06:01.747Z,12.02
2022-10-14T06:08:30.669Z,12.43
2022-10-14T06:10:59.235Z,12.88
2022-10-14T06:13:28.291Z,12.18
2022-10-14T06:15:56.785Z,13.05
2022-10-14T06:18:25.509Z,12.45
2022-10-14T06:20:54.595Z,12.60
2022-10-14T06:23:24.729Z,12.25
2022-10-14T06:25:53.241Z,11.95
2022-10-14T06:28:21.882Z,12.13
2022-10-14T06:30:53.772Z,11.90
2022-10-14T06:33:22.862Z,12.15
2022-10-14T06:35:51.503Z,11.77
2022-10-14T06:38:20.142Z,12.13
2022-10-14T06:40:51.709Z,11.60
2022-10-14T06:43:20.530Z,11.65
2022-10-14T06:45:49.221Z,12.88
2022-10-14T06:48:17.974Z,11.55
2022-10-14T06:50:46.421Z,12.25
2022-10-14T06:53:14.990Z,12.45
2022-10-14T06:55:43.782Z,11.60
2022-10-14T06:58:15.064Z,12.65
2022-10-14T07:00:47.972Z,12.18
2022-10-14T07:03:17.368Z,11.27
2022-10-14T07:05:45.966Z,12.27
2022-10-14T07:08:15.842Z,11.52
2022-10-14T07:10:44.669Z,13.20
2022-10-14T07:13:14.898Z,12.13
2022-10-14T07:15:43.604Z,12.50
2022-10-14T07:18:12.221Z,12.02
2022-10-14T07:20:40.977Z,11.93
2022-10-14T07:23:09.552Z,12.15
2022-10-14T07:25:38.194Z,12.60
2022-10-14T07:28:06.995Z,11.90
2022-10-14T07:30:38.446Z,12.48
2022-10-14T07:33:07.099Z,12.80
2022-10-14T07:35:36.325Z,11.57
2022-10-14T07:38:04.929Z,12.00
2022-10-14T07:40:33.696Z,12.25
2022-10-14T07:43:02.260Z,12.25
2022-10-14T07:45:35.447Z,11.98
2022-10-14T07:48:05.603Z,12.05
2022-10-14T07:50:34.321Z,11.68
2022-10-14T07:53:02.873Z,11.52
2022-10-14T07:55:32.020Z,11.95
2022-10-14T07:58:00.741Z,12.65
2022-10-14T08:00:29.559Z,12.93
2022-10-14T08:02:58.133Z,12.25
2022-10-14T08:05:43.572Z,11.98
2022-10-14T08:08:12.298Z,37.15
2022-10-14T08:10:41.379Z,17.17
2022-10-14T08:13:09.905Z,21.52
2022-10-14T08:15:40.946Z,17.17
2022-10-14T08:18:09.753Z,16.63
2022-10-14T08:20:39.952Z,18.42
2022-10-14T08:23:09.665Z,16.92
2022-10-14T08:25:38.221Z,18.70
2022-10-14T08:28:06.812Z,18.13
2022-10-14T08:30:35.376Z,19.02
2022-10-14T08:33:04.090Z,19.52
2022-10-14T08:35:32.803Z,18.60
2022-10-14T08:38:03.289Z,18.38
2022-10-14T08:40:35.109Z,19.70
2022-10-14T08:43:05.673Z,18.60
2022-10-14T08:45:36.164Z,19.98
2022-10-14T08:48:09.719Z,19.10
2022-10-14T08:50:40.698Z,18.65
2022-10-14T08:53:13.832Z,19.98
2022-10-14T08:55:45.011Z,21.67
2022-10-14T08:58:16.247Z,19.60
2022-10-14T09:00:45.204Z,19.52
2022-10-14T09:03:18.092Z,22.35
2022-10-14T09:05:57.067Z,21.77
2022-10-14T09:08:34.147Z,22.58
2022-10-14T09:11:02.735Z,22.98
2022-10-14T09:13:35.702Z,23.38
2022-10-14T09:16:07.371Z,21.33
2022-10-14T09:18:39.439Z,21.27
2022-10-14T09:21:51.733Z,20.33
2022-10-14T09:24:23.032Z,21.20
2022-10-14T09:29:29.343Z,25.60
2022-10-14T09:32:00.495Z,32.60
2022-10-14T09:34:33.545Z,27.00
2022-10-14T09:37:20.268Z,25.85
2022-10-14T09:39:51.164Z,26.02
2022-10-14T09:42:21.373Z,22.65
2022-10-14T09:47:41.482Z,24.85
2022-10-14T09:50:11.119Z,23.83
2022-10-14T09:52:40.066Z,25.45
2022-10-14T09:55:18.130Z,24.17
2022-10-14T09:57:46.746Z,25.02
2022-10-14T10:00:27.243Z,27.35
2022-10-14T10:02:56.411Z,25.63
2022-10-14T10:05:26.632Z,25.00
2022-10-14T10:08:03.583Z,24.63
2022-10-14T10:10:35.178Z,23.52
2022-10-14T10:13:03.809Z,24.17
2022-10-14T10:15:32.504Z,24.00
2022-10-14T10:18:00.979Z,22.92
2022-10-14T10:20:33.281Z,23.70
2022-10-14T10:23:25.074Z,24.98
2022-10-14T10:25:55.045Z,25.55
2022-10-14T10:28:31.953Z,23.98
2022-10-14T10:31:08.236Z,24.80
2022-10-14T10:33:40.880Z,23.35
2022-10-14T10:36:20.982Z,26.08
2022-10-14T10:39:00.050Z,26.30
2022-10-14T10:41:51.128Z,27.63
2022-10-14T10:44:59.016Z,31.23
2022-10-14T10:47:33.952Z,35.60
2022-10-14T10:50:27.832Z,40.55
2022-10-14T10:53:07.252Z,35.03
2022-10-14T10:55:39.874Z,34.92
2022-10-14T10:58:20.828Z,38.33
2022-10-14T11:00:53.028Z,40.03
2022-10-14T11:03:43.774Z,40.35
2022-10-14T11:06:35.767Z,36.35
2022-10-14T11:09:20.136Z,36.00
2022-10-14T11:12:07.887Z,32.67
2022-10-14T11:14:56.592Z,35.95
2022-10-14T11:17:29.952Z,33.17
2022-10-14T11:20:04.311Z,33.85
2022-10-14T11:22:51.039Z,31.67
2022-10-14T11:25:25.340Z,31.58
2022-10-14T11:28:00.808Z,31.38
2022-10-14T11:30:39.052Z,30.48
2022-10-14T11:33:22.872Z,29.73
2022-10-14T11:35:57.237Z,29.60
2022-10-14T11:38:40.147Z,29.75
2022-10-14T11:41:13.903Z,28.70
2022-10-14T11:43:48.166Z,28.58
2022-10-14T11:46:20.231Z,26.88
2022-10-14T11:48:52.315Z,25.98
2022-10-14T11:51:24.644Z,26.67
2022-10-14T11:54:04.441Z,25.85
2022-10-14T11:56:46.826Z,26.95
2022-10-14T11:59:23.990Z,25.27
2022-10-14T12:02:04.355Z,25.83
2022-10-14T12:04:34.984Z,25.55
2022-10-14T12:07:06.830Z,25.88
2022-10-14T12:09:39.465Z,24.92
2022-10-14T12:12:10.973Z,24.42
2022-10-14T12:14:41.518Z,24.00
2022-10-14T12:17:18.787Z,24.42
2022-10-14T12:19:47.523Z,23.90
2022-10-14T12:22:19.934Z,24.30
2022-10-14T12:24:51.346Z,24.88
2022-10-14T12:27:20.009Z,22.85
2022-10-14T12:29:49.831Z,24.05
2022-10-14T12:32:25.822Z,24.00
2022-10-14T12:34:55.000Z,23.10
2022-10-14T12:40:32.405Z,23.10
2022-10-14T12:43:24.683Z,22.73
2022-10-14T12:46:03.239Z,22.58
2022-10-14T12:48:34.869Z,24.35
2022-10-14T12:51:13.289Z,24.85
2022-10-14T12:53:50.210Z,25.95
2022-10-14T12:56:31.650Z,26.00
2022-10-14T12:59:02.519Z,27.10
2022-10-14T13:01:35.263Z,28.50
2022-10-14T13:04:10.124Z,31.42
2022-10-14T13:06:40.571Z,33.55
2022-10-14T13:09:33.283Z,33.00
2022-10-14T13:12:46.704Z,36.83
2022-10-14T13:15:54.002Z,35.92
2022-10-14T13:18:51.477Z,38.53
2022-10-14T13:21:52.774Z,32.95
2022-10-14T13:24:28.238Z,46.38
2022-10-14T13:27:08.859Z,41.72
2022-10-14T13:29:55.834Z,40.17
2022-10-14T13:32:31.693Z,38.80
2022-10-14T13:35:07.591Z,37.20
2022-10-14T13:37:43.308Z,34.05
2022-10-14T13:40:22.317Z,34.83
2022-10-14T13:42:53.282Z,36.22
2022-10-14T13:45:22.459Z,33.55
2022-10-14T13:47:51.091Z,34.53
2022-10-14T13:50:23.709Z,32.13
2022-10-14T13:52:57.832Z,30.75
2022-10-14T13:55:27.303Z,29.48
2022-10-14T13:58:18.677Z,30.17
2022-10-14T14:00:52.838Z,27.23
2022-10-14T14:03:24.834Z,29.73
2022-10-14T14:05:53.804Z,29.52
2022-10-14T14:08:43.153Z,28.30
2022-10-14T14:11:19.053Z,27.73
2022-10-14T14:13:59.837Z,26.63
2022-10-14T14:16:32.260Z,26.90
2022-10-14T14:19:08.469Z,25.85
2022-10-14T14:21:37.885Z,25.58
2022-10-14T14:24:16.881Z,25.77
2022-10-14T14:26:45.606Z,25.92
2022-10-14T14:29:19.023Z,25.13
2022-10-14T14:32:05.477Z,24.95
2022-10-14T14:34:36.255Z,25.38
2022-10-14T14:37:17.541Z,25.45
2022-10-14T14:40:02.725Z,24.35
2022-10-14T14:42:36.102Z,24.35
2022-10-14T14:45:07.873Z,23.38
2022-10-14T14:47:36.452Z,23.73
2022-10-14T14:50:28.961Z,24.13
2022-10-14T14:52:54.289Z,24.25
2022-10-14T14:55:43.438Z,23.08
2022-10-14T14:58:25.689Z,23.20
2022-10-14T15:00:55.369Z,23.13
2022-10-14T15:03:24.711Z,23.70
2022-10-14T15:05:56.049Z,22.58
2022-10-14T15:08:26.542Z,23.17
2022-10-14T15:10:57.161Z,22.95
2022-10-14T15:13:44.409Z,22.67
2022-10-14T15:16:12.916Z,22.10
2022-10-14T15:18:43.673Z,21.77
2022-10-14T15:21:19.199Z,22.35
2022-10-14T15:24:03.132Z,20.85
2022-10-14T15:26:34.934Z,21.17
2022-10-14T15:32:07.846Z,21.42
2022-10-14T15:34:36.351Z,20.63
2022-10-14T15:37:05.053Z,21.23
2022-10-14T15:39:33.579Z,20.98
2022-10-14T15:42:09.999Z,24.02
2022-10-14T15:44:38.460Z,29.08
2022-10-14T15:47:21.743Z,24.10
2022-10-14T15:49:50.842Z,22.48
2022-10-14T15:52:21.669Z,22.67
2022-10-14T15:54:55.982Z,22.33
2022-10-14T15:57:26.683Z,21.55
2022-10-14T15:59:55.354Z,23.00
2022-10-14T16:02:28.548Z,21.80
2022-10-14T16:07:46.549Z,21.10
2022-10-14T16:10:16.926Z,21.38
2022-10-14T16:12:47.058Z,20.92
2022-10-14T16:15:31.712Z,20.73
2022-10-14T16:18:00.614Z,21.00
2022-10-14T16:20:30.780Z,20.52
2022-10-14T16:23:00.681Z,19.10
2022-10-14T16:25:32.920Z,20.25
2022-10-14T16:28:07.590Z,20.70
2022-10-14T16:30:39.595Z,19.98
2022-10-14T16:33:08.487Z,20.20
2022-10-14T16:35:37.200Z,19.80
2022-10-14T16:38:05.729Z,20.08
2022-10-14T16:40:36.760Z,19.90
2022-10-14T16:43:07.188Z,20.70
2022-10-14T16:45:35.982Z,19.42
2022-10-14T16:48:04.677Z,19.65
2022-10-14T16:50:33.510Z,20.08
2022-10-14T16:53:19.279Z,19.40
2022-10-14T16:55:47.938Z,20.00
2022-10-14T16:58:17.861Z,18.02
2022-10-14T17:00:46.806Z,19.38
2022-10-14T17:03:15.443Z,18.48
2022-10-14T17:05:44.115Z,18.38
2022-10-14T17:08:14.834Z,19.27
2022-10-14T17:10:43.618Z,19.80
2022-10-14T17:13:12.233Z,19.10
2022-10-14T17:15:42.219Z,19.92
2022-10-14T17:18:12.535Z,19.88
2022-10-14T17:20:41.271Z,19.20
2022-10-14T17:23:10.539Z,22.80
2022-10-14T17:25:39.354Z,44.03
2022-10-14T17:28:07.973Z,36.88
2022-10-14T17:30:36.568Z,41.33
2022-10-14T17:33:08.175Z,33.75
2022-10-14T17:35:36.832Z,28.70
2022-10-14T17:38:07.471Z,36.28
2022-10-14T17:40:36.246Z,30.20
2022-10-14T17:43:04.777Z,33.13
2022-10-14T17:45:33.333Z,30.17
2022-10-14T17:48:02.021Z,28.58
2022-10-14T17:50:32.566Z,31.83
2022-10-14T17:53:01.125Z,36.25
2022-10-14T17:55:29.745Z,30.92
2022-10-14T17:57:58.287Z,29.33
2022-10-14T18:00:26.958Z,28.52
2022-10-14T18:02:55.642Z,28.73
2022-10-14T18:05:24.518Z,28.80
2022-10-14T18:07:54.553Z,28.58
2022-10-14T18:10:24.082Z,27.38
2022-10-14T18:12:52.826Z,27.85
2022-10-14T18:15:21.345Z,26.98
2022-10-14T18:17:50.263Z,26.17
2022-10-14T18:20:18.975Z,26.10
2022-10-14T18:25:22.645Z,25.63
2022-10-14T18:27:52.422Z,25.35
2022-10-14T18:30:23.603Z,24.65
2022-10-14T18:32:56.011Z,24.83
2022-10-14T18:35:25.707Z,25.70
2022-10-14T18:37:54.341Z,27.92
2022-10-14T18:40:24.311Z,24.23
2022-10-14T18:42:57.395Z,33.75
2022-10-14T18:45:25.958Z,34.25
2022-10-14T18:47:54.611Z,29.88
2022-10-14T18:50:23.167Z,37.35
2022-10-14T18:52:51.711Z,35.15
2022-10-14T18:55:20.392Z,31.52
2022-10-14T18:57:50.375Z,31.45
2022-10-14T19:00:19.707Z,29.85
2022-10-14T19:02:48.327Z,30.38
2022-10-14T19:05:17.957Z,29.42
2022-10-14T19:07:47.269Z,29.30
2022-10-14T19:10:16.207Z,27.65
2022-10-14T19:15:15.474Z,34.85
2022-10-14T19:17:46.451Z,37.22
2022-10-14T19:20:15.861Z,31.92
2022-10-14T19:22:45.374Z,30.08
2022-10-14T19:25:14.072Z,30.33
2022-10-14T19:27:42.782Z,29.05
2022-10-14T19:30:12.668Z,28.70
2022-10-14T19:32:42.611Z,28.58
2022-10-14T19:35:11.434Z,27.52
2022-10-14T19:37:40.377Z,27.90
2022-10-14T19:40:10.479Z,26.48
2022-10-14T19:42:39.055Z,25.88
2022-10-14T19:45:08.781Z,25.60
2022-10-14T19:47:37.350Z,26.92
2022-10-14T19:50:11.418Z,24.95
2022-10-14T19:52:39.920Z,25.70
2022-10-14T19:55:09.950Z,25.15
2022-10-14T19:57:38.642Z,25.92
2022-10-14T20:00:09.249Z,25.58
2022-10-14T20:05:13.335Z,25.30
2022-10-14T20:07:42.175Z,24.95
2022-10-14T20:10:11.308Z,26.17
2022-10-14T20:12:40.738Z,25.90
2022-10-14T20:15:11.121Z,25.27
2022-10-14T20:17:39.775Z,24.80
2022-10-14T20:20:09.808Z,23.50
2022-10-14T20:22:43.749Z,25.25
2022-10-14T20:25:12.439Z,24.05
2022-10-14T20:27:41.023Z,23.75
2022-10-14T20:30:11.634Z,23.95
2022-10-14T20:32:40.108Z,23.48
2022-10-14T20:35:14.149Z,23.58
2022-10-14T20:37:45.155Z,22.98
2022-10-14T20:40:14.150Z,22.98
2022-10-14T20:42:42.974Z,23.42
2022-10-14T20:45:11.969Z,23.17
2022-10-14T20:47:40.557Z,23.52
2022-10-14T20:50:10.113Z,23.75
2022-10-14T20:52:38.694Z,23.60
2022-10-14T20:55:09.438Z,22.42
2022-10-14T20:57:37.989Z,22.65
2022-10-14T21:00:07.659Z,22.17
2022-10-14T21:02:36.406Z,21.73
2022-10-14T21:05:05.322Z,22.58
2022-10-14T21:07:33.999Z,22.98
2022-10-14T21:10:02.749Z,21.77
2022-10-14T21:12:32.743Z,22.00
2022-10-14T21:15:01.299Z,22.30
2022-10-14T21:17:30.062Z,21.88
2022-10-14T21:19:58.613Z,21.45
2022-10-14T21:22:27.226Z,22.33
2022-10-14T21:24:55.913Z,22.08
2022-10-14T21:27:24.734Z,21.08
2022-10-14T21:32:24.984Z,21.80
2022-10-14T21:34:53.780Z,20.90
2022-10-14T21:37:22.318Z,20.35
2022-10-14T21:39:51.692Z,21.05
2022-10-14T21:42:20.387Z,21.17
2022-10-14T21:44:49.181Z,20.08
2022-10-14T21:47:19.176Z,21.23
2022-10-14T21:49:48.042Z,20.85
2022-10-14T21:52:16.643Z,20.65
2022-10-14T21:54:45.260Z,19.73
2022-10-14T21:57:13.764Z,20.83
2022-10-14T21:59:42.344Z,19.85
2022-10-14T22:02:10.930Z,20.48
2022-10-14T22:04:41.136Z,19.80
2022-10-14T22:07:10.690Z,20.55
2022-10-14T22:09:39.307Z,19.88
2022-10-14T22:12:08.119Z,18.58
2022-10-14T22:14:36.652Z,19.58
2022-10-14T22:17:05.233Z,19.33
2022-10-14T22:19:33.815Z,18.98
2022-10-14T22:22:04.381Z,19.65
2022-10-14T22:24:32.906Z,19.13
2022-10-14T22:27:01.445Z,18.73
2022-10-14T22:29:32.935Z,19.55
2022-10-14T22:32:01.548Z,19.17
2022-10-14T22:34:30.581Z,18.60
2022-10-14T22:36:59.678Z,18.77
2022-10-14T22:39:29.799Z,19.00
2022-10-14T22:41:58.493Z,18.40
2022-10-14T22:44:27.101Z,18.77
2022-10-14T22:46:55.854Z,18.05
2022-10-14T22:49:24.645Z,18.90
2022-10-14T22:51:55.951Z,18.50
2022-10-14T22:54:25.584Z,18.05
2022-10-14T22:56:55.541Z,18.30
2022-10-14T22:59:24.102Z,18.05
2022-10-14T23:01:52.682Z,18.15
2022-10-14T23:04:21.452Z,18.08
2022-10-14T23:06:51.494Z,18.50
2022-10-14T23:09:20.020Z,18.35
2022-10-14T23:11:48.623Z,18.50
2022-10-14T23:14:18.509Z,17.45
2022-10-14T23:16:47.159Z,17.98
2022-10-14T23:19:15.708Z,17.67
2022-10-14T23:21:44.640Z,18.27
2022-10-14T23:24:13.251Z,18.55
2022-10-14T23:26:42.016Z,18.17
2022-10-14T23:29:11.783Z,17.85
2022-10-14T23:31:42.054Z,18.05
2022-10-14T23:34:13.731Z,17.52
2022-10-14T23:36:42.508Z,17.77
2022-10-14T23:39:11.305Z,18.02
2022-10-14T23:41:40.376Z,17.60
2022-10-14T23:44:09.009Z,18.17
2022-10-14T23:46:37.668Z,17.58
2022-10-14T23:49:24.992Z,17.35
2022-10-14T23:51:55.334Z,17.27
2022-10-14T23:54:23.919Z,18.00
2022-10-14T23:56:52.461Z,17.83
2022-10-14T23:59:21.149Z,18.35
